createdAt,value
2018-12-15T00:00:22.083Z,1008.20
2018-12-15T00:01:22.068Z,1008.18
2018-12-15T00:02:22.051Z,1008.21
2018-12-15T00:03:22.034Z,1008.21
2018-12-15T00:04:22.019Z,1008.23
2018-12-15T00:05:22.003Z,1008.24
2018-12-15T00:06:21.987Z,1008.20
2018-12-15T00:07:21.971Z,1008.21
2018-12-15T00:08:21.956Z,1008.17
2018-12-15T00:09:21.941Z,1008.16
2018-12-15T00:10:21.933Z,1008.14
2018-12-15T00:11:21.907Z,1008.18
2018-12-15T00:12:21.892Z,1008.17
2018-12-15T00:13:21.875Z,1008.13
2018-12-15T00:14:21.860Z,1008.16
2018-12-15T00:15:21.844Z,1008.15
2018-12-15T00:16:21.828Z,1008.21
2018-12-15T00:17:21.811Z,1008.18
2018-12-15T00:18:21.799Z,1008.25
2018-12-15T00:19:21.780Z,1008.24
2018-12-15T00:20:21.765Z,1008.28
2018-12-15T00:21:21.754Z,1008.25
2018-12-15T00:22:21.736Z,1008.26
2018-12-15T00:23:21.717Z,1008.26
2018-12-15T00:24:21.702Z,1008.26
2018-12-15T00:25:21.686Z,1008.26
2018-12-15T00:26:21.669Z,1008.24
2018-12-15T00:27:21.653Z,1008.23
2018-12-15T00:28:21.637Z,1008.27
2018-12-15T00:29:21.625Z,1008.22
2018-12-15T00:30:21.607Z,1008.30
2018-12-15T00:31:21.590Z,1008.29
2018-12-15T00:32:21.574Z,1008.34
2018-12-15T00:33:21.558Z,1008.35
2018-12-15T00:34:21.542Z,1008.38
2018-12-15T00:35:21.526Z,1008.41
2018-12-15T00:36:21.511Z,1008.42
2018-12-15T00:37:21.495Z,1008.40
2018-12-15T00:38:21.479Z,1008.45
2018-12-15T00:39:21.463Z,1008.46
2018-12-15T00:40:21.449Z,1008.50
2018-12-15T00:41:21.434Z,1008.52
2018-12-15T00:42:21.418Z,1008.53
2018-12-15T00:43:21.408Z,1008.56
2018-12-15T00:44:21.385Z,1008.57
2018-12-15T00:45:21.373Z,1008.59
2018-12-15T00:46:21.355Z,1008.55
2018-12-15T00:47:21.340Z,1008.59
2018-12-15T00:48:21.323Z,1008.59
2018-12-15T00:49:21.309Z,1008.58
2018-12-15T00:50:21.298Z,1008.59
2018-12-15T00:51:21.278Z,1008.58
2018-12-15T00:52:21.262Z,1008.58
2018-12-15T00:53:21.247Z,1008.53
2018-12-15T00:54:21.232Z,1008.55
2018-12-15T00:55:21.217Z,1008.53
2018-12-15T00:56:21.211Z,1008.63
2018-12-15T00:57:21.188Z,1008.56
2018-12-15T00:58:21.171Z,1008.57
2018-12-15T00:59:21.155Z,1008.61
2018-12-15T01:00:21.140Z,1008.61
2018-12-15T01:01:21.127Z,1008.58
2018-12-15T01:02:21.115Z,1008.62
2018-12-15T01:03:21.101Z,1008.68
2018-12-15T01:04:21.082Z,1008.69
2018-12-15T01:05:21.072Z,1008.68
2018-12-15T01:06:21.050Z,1008.67
2018-12-15T01:07:21.034Z,1008.71
2018-12-15T01:08:21.019Z,1008.69
2018-12-15T01:09:21.007Z,1008.71
2018-12-15T01:10:21.033Z,1008.65
2018-12-15T01:11:20.974Z,1008.67
2018-12-15T01:12:20.958Z,1008.64
2018-12-15T01:13:20.944Z,1008.65
2018-12-15T01:14:20.933Z,1008.66
2018-12-15T01:15:20.913Z,1008.67
2018-12-15T01:16:20.899Z,1008.73
2018-12-15T01:17:20.884Z,1008.71
2018-12-15T01:18:20.870Z,1008.72
2018-12-15T01:19:20.852Z,1008.74
2018-12-15T01:20:20.838Z,1008.76
2018-12-15T01:21:20.822Z,1008.76
2018-12-15T01:22:20.807Z,1008.78
2018-12-15T01:23:20.792Z,1008.81
2018-12-15T01:24:20.778Z,1008.79
2018-12-15T01:25:20.762Z,1008.82
2018-12-15T01:26:20.949Z,1008.82
2018-12-15T01:27:20.732Z,1008.77
2018-12-15T01:28:20.717Z,1008.83
2018-12-15T01:29:20.702Z,1008.82
2018-12-15T01:30:20.687Z,1008.85
2018-12-15T01:31:20.873Z,1008.84
2018-12-15T01:32:20.664Z,1008.87
2018-12-15T01:33:20.648Z,1008.86
2018-12-15T01:34:20.876Z,1008.84
2018-12-15T01:35:20.611Z,1008.85
2018-12-15T01:36:20.598Z,1008.87
2018-12-15T01:37:20.581Z,1008.84
2018-12-15T01:38:20.566Z,1008.83
2018-12-15T01:39:20.550Z,1008.91
2018-12-15T01:40:20.539Z,1008.91
2018-12-15T01:41:20.520Z,1008.92
2018-12-15T01:42:20.507Z,1008.93
2018-12-15T01:43:20.489Z,1008.94
2018-12-15T01:44:20.474Z,1008.93
2018-12-15T01:45:20.462Z,1008.94
2018-12-15T01:46:20.444Z,1008.88
2018-12-15T01:47:26.828Z,1008.91
2018-12-15T01:48:20.413Z,1008.89
2018-12-15T01:49:20.398Z,1008.87
2018-12-15T01:50:20.383Z,1008.92
2018-12-15T01:51:20.366Z,1008.89
2018-12-15T01:52:20.352Z,1008.92
2018-12-15T01:53:20.337Z,1008.90
2018-12-15T01:54:20.322Z,1008.87
2018-12-15T01:55:20.306Z,1008.91
2018-12-15T01:56:20.291Z,1008.87
2018-12-15T01:57:20.277Z,1008.85
2018-12-15T01:58:20.261Z,1008.89
2018-12-15T01:59:20.246Z,1008.89
2018-12-15T02:00:20.230Z,1008.87
2018-12-15T02:01:20.215Z,1008.87
2018-12-15T02:02:20.201Z,1008.86
2018-12-15T02:03:20.184Z,1008.88
2018-12-15T02:04:20.168Z,1008.81
2018-12-15T02:05:20.154Z,1008.85
2018-12-15T02:06:20.143Z,1008.87
2018-12-15T02:07:20.127Z,1008.81
2018-12-15T02:08:20.108Z,1008.81
2018-12-15T02:09:20.093Z,1008.79
2018-12-15T02:10:20.079Z,1008.82
2018-12-15T02:11:20.061Z,1008.77
2018-12-15T02:12:20.049Z,1008.77
2018-12-15T02:13:20.032Z,1008.80
2018-12-15T02:14:20.016Z,1008.79
2018-12-15T02:15:20.000Z,1008.73
2018-12-15T02:16:19.985Z,1008.73
2018-12-15T02:17:19.971Z,1008.76
2018-12-15T02:18:19.957Z,1008.78
2018-12-15T02:19:19.940Z,1008.76
2018-12-15T02:20:19.925Z,1008.78
2018-12-15T02:21:19.912Z,1008.71
2018-12-15T02:22:19.894Z,1008.73
2018-12-15T02:23:19.878Z,1008.72
2018-12-15T02:24:19.863Z,1008.69
2018-12-15T02:25:19.848Z,1008.73
2018-12-15T02:26:19.833Z,1008.66
2018-12-15T02:27:19.817Z,1008.67
2018-12-15T02:28:19.803Z,1008.65
2018-12-15T02:29:19.791Z,1008.64
2018-12-15T02:30:19.773Z,1008.60
2018-12-15T02:31:19.755Z,1008.60
2018-12-15T02:32:19.760Z,1008.58
2018-12-15T02:33:19.724Z,1008.57
2018-12-15T02:34:19.709Z,1008.56
2018-12-15T02:35:19.693Z,1008.56
2018-12-15T02:36:19.677Z,1008.55
2018-12-15T02:37:19.662Z,1008.57
2018-12-15T02:38:19.650Z,1008.58
2018-12-15T02:39:19.630Z,1008.59
2018-12-15T02:40:19.618Z,1008.54
2018-12-15T02:41:19.600Z,1008.53
2018-12-15T02:42:19.584Z,1008.51
2018-12-15T02:43:19.568Z,1008.51
2018-12-15T02:44:19.553Z,1008.56
2018-12-15T02:45:19.538Z,1008.53
2018-12-15T02:46:19.522Z,1008.57
2018-12-15T02:47:19.506Z,1008.57
2018-12-15T02:48:19.491Z,1008.56
2018-12-15T02:49:19.475Z,1008.57
2018-12-15T02:50:19.460Z,1008.62
2018-12-15T02:51:19.451Z,1008.58
2018-12-15T02:52:19.433Z,1008.59
2018-12-15T02:53:19.414Z,1008.56
2018-12-15T02:54:19.401Z,1008.56
2018-12-15T02:55:19.382Z,1008.55
2018-12-15T02:56:19.368Z,1008.53
2018-12-15T02:57:19.362Z,1008.53
2018-12-15T02:58:19.339Z,1008.50
2018-12-15T02:59:19.319Z,1008.51
2018-12-15T03:00:19.304Z,1008.47
2018-12-15T03:01:19.288Z,1008.49
2018-12-15T03:02:19.274Z,1008.51
2018-12-15T03:03:19.257Z,1008.47
2018-12-15T03:04:19.241Z,1008.47
2018-12-15T03:05:19.226Z,1008.45
2018-12-15T03:06:19.210Z,1008.47
2018-12-15T03:07:19.196Z,1008.44
2018-12-15T03:08:19.179Z,1008.46
2018-12-15T03:09:19.163Z,1008.46
2018-12-15T03:10:19.148Z,1008.44
2018-12-15T03:11:19.134Z,1008.41
2018-12-15T03:12:19.126Z,1008.42
2018-12-15T03:13:19.104Z,1008.42
2018-12-15T03:14:19.086Z,1008.42
2018-12-15T03:15:19.070Z,1008.41
2018-12-15T03:16:19.055Z,1008.37
2018-12-15T03:17:19.040Z,1008.42
2018-12-15T03:18:19.025Z,1008.43
2018-12-15T03:19:19.018Z,1008.44
2018-12-15T03:20:18.993Z,1008.38
2018-12-15T03:21:18.977Z,1008.36
2018-12-15T03:22:18.963Z,1008.34
2018-12-15T03:23:18.947Z,1008.33
2018-12-15T03:24:18.931Z,1008.34
2018-12-15T03:25:18.915Z,1008.30
2018-12-15T03:26:18.900Z,1008.29
2018-12-15T03:27:18.885Z,1008.30
2018-12-15T03:28:18.868Z,1008.28
2018-12-15T03:29:18.858Z,1008.24
2018-12-15T03:30:18.840Z,1008.22
2018-12-15T03:31:18.826Z,1008.26
2018-12-15T03:32:18.837Z,1008.25
2018-12-15T03:33:18.993Z,1008.26
2018-12-15T03:34:18.775Z,1008.22
2018-12-15T03:35:18.760Z,1008.23
2018-12-15T03:36:18.745Z,1008.21
2018-12-15T03:37:18.729Z,1008.24
2018-12-15T03:38:18.713Z,1008.21
2018-12-15T03:39:18.697Z,1008.21
2018-12-15T03:40:18.681Z,1008.20
2018-12-15T03:41:18.666Z,1008.23
2018-12-15T03:42:18.657Z,1008.28
2018-12-15T03:43:18.634Z,1008.24
2018-12-15T03:44:18.618Z,1008.25
2018-12-15T03:45:18.604Z,1008.27
2018-12-15T03:46:18.590Z,1008.24
2018-12-15T03:47:18.571Z,1008.22
2018-12-15T03:48:18.555Z,1008.25
2018-12-15T03:49:18.540Z,1008.25
2018-12-15T03:50:18.526Z,1008.25
2018-12-15T03:51:18.511Z,1008.29
2018-12-15T03:52:18.492Z,1008.35
2018-12-15T03:53:18.477Z,1008.30
2018-12-15T03:54:18.463Z,1008.30
2018-12-15T03:55:18.445Z,1008.28
2018-12-15T03:56:18.430Z,1008.30
2018-12-15T03:57:18.416Z,1008.30
2018-12-15T03:58:18.399Z,1008.27
2018-12-15T03:59:18.381Z,1008.28
2018-12-15T04:00:18.369Z,1008.26
2018-12-15T04:01:18.354Z,1008.25
2018-12-15T04:02:18.335Z,1008.26
2018-12-15T04:03:18.318Z,1008.24
2018-12-15T04:04:18.310Z,1008.31
2018-12-15T04:05:18.286Z,1008.28
2018-12-15T04:06:18.271Z,1008.26
2018-12-15T04:07:18.255Z,1008.25
2018-12-15T04:08:18.238Z,1008.19
2018-12-15T04:09:18.222Z,1008.20
2018-12-15T04:10:18.206Z,1008.20
2018-12-15T04:11:18.441Z,1008.20
2018-12-15T04:12:18.177Z,1008.21
2018-12-15T04:13:18.160Z,1008.24
2018-12-15T04:14:18.142Z,1008.27
2018-12-15T04:15:18.126Z,1008.25
2018-12-15T04:16:18.111Z,1008.26
2018-12-15T04:17:18.096Z,1008.27
2018-12-15T04:18:18.080Z,1008.30
2018-12-15T04:19:18.108Z,1008.30
2018-12-15T04:20:18.119Z,1008.29
2018-12-15T04:21:18.032Z,1008.30
2018-12-15T04:22:18.016Z,1008.29
2018-12-15T04:23:17.998Z,1008.26
2018-12-15T04:24:17.982Z,1008.26
2018-12-15T04:25:17.977Z,1008.28
2018-12-15T04:26:17.954Z,1008.29
2018-12-15T04:27:17.936Z,1008.28
2018-12-15T04:28:17.918Z,1008.28
2018-12-15T04:29:17.904Z,1008.24
2018-12-15T04:30:17.888Z,1008.27
2018-12-15T04:31:17.870Z,1008.29
2018-12-15T04:32:17.853Z,1008.26
2018-12-15T04:33:17.838Z,1008.32
2018-12-15T04:34:17.822Z,1008.30
2018-12-15T04:35:17.804Z,1008.31
2018-12-15T04:36:17.790Z,1008.32
2018-12-15T04:37:17.773Z,1008.32
2018-12-15T04:38:17.761Z,1008.33
2018-12-15T04:39:17.741Z,1008.30
2018-12-15T04:40:17.728Z,1008.30
2018-12-15T04:41:17.715Z,1008.27
2018-12-15T04:42:17.698Z,1008.32
2018-12-15T04:43:17.679Z,1008.27
2018-12-15T04:44:17.660Z,1008.30
2018-12-15T04:45:17.645Z,1008.33
2018-12-15T04:46:17.628Z,1008.32
2018-12-15T04:47:17.612Z,1008.32
2018-12-15T04:48:17.597Z,1008.29
2018-12-15T04:49:17.580Z,1008.26
2018-12-15T04:50:17.572Z,1008.27
2018-12-15T04:51:17.550Z,1008.29
2018-12-15T04:52:17.532Z,1008.25
2018-12-15T04:53:17.516Z,1008.24
2018-12-15T04:54:17.501Z,1008.25
2018-12-15T04:55:17.484Z,1008.21
2018-12-15T04:56:17.469Z,1008.21
2018-12-15T04:57:17.455Z,1008.17
2018-12-15T04:58:17.438Z,1008.17
2018-12-15T04:59:17.421Z,1008.14
2018-12-15T05:00:17.404Z,1008.13
2018-12-15T05:01:17.388Z,1008.15
2018-12-15T05:02:17.372Z,1008.10
2018-12-15T05:03:17.355Z,1008.12
2018-12-15T05:04:17.545Z,1008.12
2018-12-15T05:05:17.327Z,1008.14
2018-12-15T05:06:17.311Z,1008.13
2018-12-15T05:07:17.294Z,1008.12
2018-12-15T05:08:17.275Z,1008.10
2018-12-15T05:09:17.259Z,1008.11
2018-12-15T05:10:17.243Z,1008.07
2018-12-15T05:11:17.228Z,1008.06
2018-12-15T05:12:17.284Z,1008.09
2018-12-15T05:13:17.195Z,1008.07
2018-12-15T05:14:17.180Z,1008.05
2018-12-15T05:15:17.162Z,1008.03
2018-12-15T05:16:17.146Z,1008.01
2018-12-15T05:17:17.131Z,1007.98
2018-12-15T05:18:18.362Z,1008.00
2018-12-15T05:19:17.098Z,1007.96
2018-12-15T05:20:17.082Z,1008.02
2018-12-15T05:21:17.066Z,1007.99
2018-12-15T05:22:17.051Z,1008.00
2018-12-15T05:23:17.034Z,1008.00
2018-12-15T05:24:17.018Z,1008.05
2018-12-15T05:25:17.002Z,1008.02
2018-12-15T05:26:16.989Z,1008.01
2018-12-15T05:27:16.977Z,1008.00
2018-12-15T05:28:16.956Z,1008.02
2018-12-15T05:29:16.939Z,1008.04
2018-12-15T05:30:16.923Z,1008.04
2018-12-15T05:31:16.906Z,1008.05
2018-12-15T05:32:16.891Z,1008.09
2018-12-15T05:33:16.875Z,1008.08
2018-12-15T05:34:16.859Z,1008.10
2018-12-15T05:35:16.842Z,1008.12
2018-12-15T05:36:17.028Z,1008.11
2018-12-15T05:37:16.810Z,1008.08
2018-12-15T05:38:16.795Z,1008.11
2018-12-15T05:39:16.777Z,1008.11
2018-12-15T05:40:16.762Z,1008.12
2018-12-15T05:41:16.748Z,1008.10
2018-12-15T05:42:16.730Z,1008.11
2018-12-15T05:43:16.713Z,1008.16
2018-12-15T05:44:16.696Z,1008.15
2018-12-15T05:45:16.681Z,1008.18
2018-12-15T05:46:16.667Z,1008.18
2018-12-15T05:47:16.648Z,1008.16
2018-12-15T05:48:16.632Z,1008.17
2018-12-15T05:49:16.617Z,1008.19
2018-12-15T05:50:16.606Z,1008.22
2018-12-15T05:51:16.587Z,1008.16
2018-12-15T05:52:16.770Z,1008.19
2018-12-15T05:53:16.551Z,1008.24
2018-12-15T05:54:16.535Z,1008.26
2018-12-15T05:55:16.520Z,1008.24
2018-12-15T05:56:16.505Z,1008.28
2018-12-15T05:57:16.487Z,1008.29
2018-12-15T05:58:16.470Z,1008.36
2018-12-15T05:59:16.457Z,1008.34
2018-12-15T06:00:16.438Z,1008.30
2018-12-15T06:01:16.423Z,1008.34
2018-12-15T06:02:16.406Z,1008.33
2018-12-15T06:03:16.392Z,1008.32
2018-12-15T06:04:16.375Z,1008.32
2018-12-15T06:05:16.358Z,1008.35
2018-12-15T06:06:16.342Z,1008.32
2018-12-15T06:07:16.327Z,1008.38
2018-12-15T06:08:16.309Z,1008.39
2018-12-15T06:09:16.293Z,1008.38
2018-12-15T06:10:16.280Z,1008.34
2018-12-15T06:11:16.262Z,1008.31
2018-12-15T06:12:16.244Z,1008.30
2018-12-15T06:13:16.228Z,1008.28
2018-12-15T06:14:16.213Z,1008.25
2018-12-15T06:15:16.200Z,1008.25
2018-12-15T06:16:16.187Z,1008.26
2018-12-15T06:17:16.164Z,1008.25
2018-12-15T06:18:16.147Z,1008.23
2018-12-15T06:19:16.131Z,1008.25
2018-12-15T06:20:16.115Z,1008.23
2018-12-15T06:21:16.098Z,1008.22
2018-12-15T06:22:16.082Z,1008.23
2018-12-15T06:23:16.068Z,1008.21
2018-12-15T06:24:16.050Z,1008.20
2018-12-15T06:25:16.034Z,1008.22
2018-12-15T06:26:16.016Z,1008.22
2018-12-15T06:27:15.999Z,1008.22
2018-12-15T06:28:15.983Z,1008.23
2018-12-15T06:29:15.968Z,1008.20
2018-12-15T06:30:15.954Z,1008.19
2018-12-15T06:31:15.933Z,1008.14
2018-12-15T06:32:15.917Z,1008.18
2018-12-15T06:33:15.901Z,1008.17
2018-12-15T06:34:15.884Z,1008.16
2018-12-15T06:35:15.867Z,1008.15
2018-12-15T06:36:15.851Z,1008.15
2018-12-15T06:37:15.838Z,1008.12
2018-12-15T06:38:15.821Z,1008.11
2018-12-15T06:39:16.002Z,1008.10
2018-12-15T06:40:15.787Z,1008.12
2018-12-15T06:41:15.770Z,1008.15
2018-12-15T06:42:15.751Z,1008.12
2018-12-15T06:43:15.741Z,1008.15
2018-12-15T06:44:15.717Z,1008.17
2018-12-15T06:45:15.700Z,1008.14
2018-12-15T06:46:15.683Z,1008.16
2018-12-15T06:47:15.667Z,1008.12
2018-12-15T06:48:15.649Z,1008.14
2018-12-15T06:49:15.633Z,1008.12
2018-12-15T06:50:15.620Z,1008.11
2018-12-15T06:51:15.600Z,1008.11
2018-12-15T06:52:15.583Z,1008.07
2018-12-15T06:53:15.568Z,1008.05
2018-12-15T06:54:15.551Z,1008.11
2018-12-15T06:55:15.556Z,1008.12
2018-12-15T06:56:15.518Z,1008.12
2018-12-15T06:57:15.501Z,1008.10
2018-12-15T06:58:15.485Z,1008.11
2018-12-15T06:59:15.468Z,1008.08
2018-12-15T07:00:15.450Z,1008.06
2018-12-15T07:01:15.434Z,1008.06
2018-12-15T07:02:15.419Z,1008.04
2018-12-15T07:03:15.400Z,1008.06
2018-12-15T07:04:15.398Z,1008.05
2018-12-15T07:05:15.367Z,1008.07
2018-12-15T07:06:15.350Z,1008.13
2018-12-15T07:07:15.335Z,1008.15
2018-12-15T07:08:15.316Z,1008.11
2018-12-15T07:09:15.300Z,1008.09
2018-12-15T07:10:15.285Z,1008.11
2018-12-15T07:11:15.339Z,1008.08
2018-12-15T07:12:15.249Z,1008.11
2018-12-15T07:13:15.233Z,1008.09
2018-12-15T07:14:15.419Z,1008.15
2018-12-15T07:15:15.199Z,1008.21
2018-12-15T07:16:15.182Z,1008.17
2018-12-15T07:17:15.168Z,1008.18
2018-12-15T07:18:15.152Z,1008.16
2018-12-15T07:19:15.132Z,1008.22
2018-12-15T07:20:15.115Z,1008.23
2018-12-15T07:21:15.100Z,1008.21
2018-12-15T07:22:15.082Z,1008.20
2018-12-15T07:23:15.065Z,1008.22
2018-12-15T07:24:15.052Z,1008.22
2018-12-15T07:25:15.032Z,1008.20
2018-12-15T07:26:15.016Z,1008.19
2018-12-15T07:27:14.998Z,1008.20
2018-12-15T07:28:14.988Z,1008.18
2018-12-15T07:29:14.971Z,1008.25
2018-12-15T07:30:14.950Z,1008.19
2018-12-15T07:31:14.932Z,1008.24
2018-12-15T07:32:14.917Z,1008.25
2018-12-15T07:33:14.899Z,1008.27
2018-12-15T07:34:14.883Z,1008.26
2018-12-15T07:35:14.865Z,1008.24
2018-12-15T07:36:14.849Z,1008.23
2018-12-15T07:37:14.834Z,1008.24
2018-12-15T07:38:14.825Z,1008.23
2018-12-15T07:39:14.799Z,1008.28
2018-12-15T07:40:14.783Z,1008.25
2018-12-15T07:41:14.767Z,1008.26
2018-12-15T07:42:14.752Z,1008.28
2018-12-15T07:43:14.736Z,1008.27
2018-12-15T07:44:14.719Z,1008.20
2018-12-15T07:45:14.703Z,1008.18
2018-12-15T07:46:14.684Z,1008.21
2018-12-15T07:47:14.667Z,1008.22
2018-12-15T07:48:14.651Z,1008.20
2018-12-15T07:49:14.647Z,1008.21
2018-12-15T07:50:14.623Z,1008.21
2018-12-15T07:51:14.603Z,1008.25
2018-12-15T07:52:14.586Z,1008.21
2018-12-15T07:53:14.575Z,1008.22
2018-12-15T07:54:14.553Z,1008.23
2018-12-15T07:55:14.538Z,1008.21
2018-12-15T07:56:14.524Z,1008.16
2018-12-15T07:57:14.508Z,1008.20
2018-12-15T07:58:14.491Z,1008.19
2018-12-15T07:59:14.475Z,1008.20
2018-12-15T08:00:14.453Z,1008.18
2018-12-15T08:01:14.438Z,1008.23
2018-12-15T08:02:14.420Z,1008.22
2018-12-15T08:03:14.405Z,1008.24
2018-12-15T08:04:14.387Z,1008.20
2018-12-15T08:05:14.371Z,1008.23
2018-12-15T08:06:14.360Z,1008.21
2018-12-15T08:07:14.339Z,1008.27
2018-12-15T08:08:14.321Z,1008.30
2018-12-15T08:09:14.306Z,1008.30
2018-12-15T08:10:14.293Z,1008.33
2018-12-15T08:11:14.273Z,1008.29
2018-12-15T08:12:14.256Z,1008.34
2018-12-15T08:13:14.240Z,1008.32
2018-12-15T08:14:14.226Z,1008.31
2018-12-15T08:15:14.206Z,1008.35
2018-12-15T08:16:14.190Z,1008.35
2018-12-15T08:17:14.175Z,1008.36
2018-12-15T08:18:14.158Z,1008.33
2018-12-15T08:19:14.149Z,1008.33
2018-12-15T08:20:14.125Z,1008.32
2018-12-15T08:21:14.118Z,1008.30
2018-12-15T08:22:14.098Z,1008.31
2018-12-15T08:23:14.077Z,1008.30
2018-12-15T08:24:14.061Z,1008.31
2018-12-15T08:25:14.047Z,1008.31
2018-12-15T08:26:14.037Z,1008.29
2018-12-15T08:27:14.013Z,1008.29
2018-12-15T08:28:13.999Z,1008.29
2018-12-15T08:29:13.996Z,1008.29
2018-12-15T08:30:13.964Z,1008.27
2018-12-15T08:31:13.946Z,1008.29
2018-12-15T08:32:13.930Z,1008.27
2018-12-15T08:33:13.915Z,1008.31
2018-12-15T08:34:13.898Z,1008.29
2018-12-15T08:35:13.881Z,1008.30
2018-12-15T08:36:13.867Z,1008.32
2018-12-15T08:37:13.855Z,1008.31
2018-12-15T08:38:13.833Z,1008.26
2018-12-15T08:39:13.817Z,1008.23
2018-12-15T08:40:13.804Z,1008.24
2018-12-15T08:41:13.786Z,1008.25
2018-12-15T08:42:13.769Z,1008.26
2018-12-15T08:43:13.759Z,1008.31
2018-12-15T08:44:13.738Z,1008.27
2018-12-15T08:45:13.721Z,1008.29
2018-12-15T08:46:13.705Z,1008.29
2018-12-15T08:47:13.695Z,1008.30
2018-12-15T08:48:13.671Z,1008.27
2018-12-15T08:49:13.661Z,1008.31
2018-12-15T08:50:13.639Z,1008.30
2018-12-15T08:51:13.625Z,1008.32
2018-12-15T08:52:13.605Z,1008.30
2018-12-15T08:53:13.593Z,1008.33
2018-12-15T08:54:13.575Z,1008.33
2018-12-15T08:55:13.562Z,1008.33
2018-12-15T08:56:13.541Z,1008.34
2018-12-15T08:57:13.524Z,1008.34
2018-12-15T08:58:14.681Z,1008.36
2018-12-15T08:59:13.494Z,1008.35
2018-12-15T09:00:13.477Z,1008.31
2018-12-15T09:01:13.460Z,1008.34
2018-12-15T09:02:13.445Z,1008.34
2018-12-15T09:03:13.434Z,1008.35
2018-12-15T09:04:13.413Z,1008.37
2018-12-15T09:05:13.403Z,1008.32
2018-12-15T09:06:13.384Z,1008.35
2018-12-15T09:07:13.366Z,1008.38
2018-12-15T09:08:13.352Z,1008.36
2018-12-15T09:09:13.335Z,1008.39
2018-12-15T09:10:13.321Z,1008.41
2018-12-15T09:11:13.300Z,1008.39
2018-12-15T09:12:13.286Z,1008.41
2018-12-15T09:13:13.278Z,1008.43
2018-12-15T09:14:13.256Z,1008.42
2018-12-15T09:15:13.238Z,1008.45
2018-12-15T09:16:13.229Z,1008.46
2018-12-15T09:17:13.207Z,1008.44
2018-12-15T09:18:13.190Z,1008.46
2018-12-15T09:19:13.172Z,1008.42
2018-12-15T09:20:13.159Z,1008.44
2018-12-15T09:21:13.141Z,1008.45
2018-12-15T09:22:13.125Z,1008.46
2018-12-15T09:23:13.109Z,1008.44
2018-12-15T09:24:13.094Z,1008.43
2018-12-15T09:25:13.082Z,1008.45
2018-12-15T09:26:13.060Z,1008.45
2018-12-15T09:27:13.051Z,1008.47
2018-12-15T09:28:13.027Z,1008.47
2018-12-15T09:29:13.024Z,1008.48
2018-12-15T09:30:12.995Z,1008.49
2018-12-15T09:31:12.978Z,1008.48
2018-12-15T09:32:12.965Z,1008.46
2018-12-15T09:33:12.949Z,1008.44
2018-12-15T09:34:12.938Z,1008.47
2018-12-15T09:35:12.919Z,1008.40
2018-12-15T09:36:12.903Z,1008.41
2018-12-15T09:37:12.890Z,1008.43
2018-12-15T09:38:12.866Z,1008.41
2018-12-15T09:39:12.850Z,1008.39
2018-12-15T09:40:12.839Z,1008.38
2018-12-15T09:41:12.823Z,1008.40
2018-12-15T09:42:12.800Z,1008.38
2018-12-15T09:43:12.785Z,1008.33
2018-12-15T09:44:12.766Z,1008.33
2018-12-15T09:45:12.753Z,1008.34
2018-12-15T09:46:12.734Z,1008.32
2018-12-15T09:47:12.719Z,1008.32
2018-12-15T09:48:12.703Z,1008.29
2018-12-15T09:49:17.697Z,1008.31
2018-12-15T09:50:12.668Z,1008.27
2018-12-15T09:51:12.651Z,1008.27
2018-12-15T09:52:12.636Z,1008.31
2018-12-15T09:53:12.624Z,1008.30
2018-12-15T09:54:12.611Z,1008.31
2018-12-15T09:55:12.586Z,1008.33
2018-12-15T09:56:12.571Z,1008.37
2018-12-15T09:57:12.554Z,1008.38
2018-12-15T09:58:12.537Z,1008.37
2018-12-15T09:59:12.519Z,1008.32
2018-12-15T10:00:12.509Z,1008.24
2018-12-15T10:01:12.488Z,1008.19
2018-12-15T10:02:12.473Z,1008.08
2018-12-15T10:03:12.462Z,1008.06
2018-12-15T10:04:12.439Z,1008.05
2018-12-15T10:05:12.428Z,1007.99
2018-12-15T10:06:12.406Z,1007.98
2018-12-15T10:07:12.388Z,1008.01
2018-12-15T10:08:12.372Z,1008.00
2018-12-15T10:09:12.356Z,1007.98
2018-12-15T10:10:12.341Z,1007.98
2018-12-15T10:11:12.326Z,1008.00
2018-12-15T10:12:12.306Z,1007.94
2018-12-15T10:13:12.293Z,1008.00
2018-12-15T10:14:12.277Z,1007.95
2018-12-15T10:15:12.460Z,1007.91
2018-12-15T10:16:12.240Z,1007.92
2018-12-15T10:17:12.228Z,1007.90
2018-12-15T10:18:12.209Z,1007.92
2018-12-15T10:19:12.191Z,1007.90
2018-12-15T10:20:12.177Z,1007.89
2018-12-15T10:21:12.163Z,1007.89
2018-12-15T10:22:12.145Z,1007.84
2018-12-15T10:23:12.128Z,1007.82
2018-12-15T10:24:12.115Z,1007.83
2018-12-15T10:25:12.100Z,1007.82
2018-12-15T10:26:12.083Z,1007.76
2018-12-15T10:27:12.065Z,1007.71
2018-12-15T10:28:12.053Z,1007.65
2018-12-15T10:29:12.038Z,1007.60
2018-12-15T10:30:12.021Z,1007.59
2018-12-15T10:31:12.004Z,1007.60
2018-12-15T10:32:11.988Z,1007.61
2018-12-15T10:33:11.973Z,1007.59
2018-12-15T10:34:11.959Z,1007.61
2018-12-15T10:35:11.943Z,1007.64
2018-12-15T10:36:11.926Z,1007.67
2018-12-15T10:37:11.918Z,1007.56
2018-12-15T10:38:11.904Z,1007.58
2018-12-15T10:39:11.884Z,1007.61
2018-12-15T10:40:11.863Z,1007.50
2018-12-15T10:41:11.849Z,1007.48
2018-12-15T10:42:11.830Z,1007.47
2018-12-15T10:43:11.816Z,1007.40
2018-12-15T10:44:11.805Z,1007.44
2018-12-15T10:45:11.834Z,1007.42
2018-12-15T10:46:11.776Z,1007.42
2018-12-15T10:47:11.749Z,1007.38
2018-12-15T10:48:11.734Z,1007.40
2018-12-15T10:49:11.721Z,1007.34
2018-12-15T10:50:11.701Z,1007.33
2018-12-15T10:51:11.685Z,1007.37
2018-12-15T10:52:11.669Z,1007.34
2018-12-15T10:53:11.652Z,1007.33
2018-12-15T10:54:11.642Z,1007.35
2018-12-15T10:55:11.622Z,1007.27
2018-12-15T10:56:11.606Z,1007.33
2018-12-15T10:57:11.590Z,1007.31
2018-12-15T10:58:11.571Z,1007.30
2018-12-15T10:59:11.569Z,1007.32
2018-12-15T11:00:11.541Z,1007.34
2018-12-15T11:01:11.523Z,1007.25
2018-12-15T11:02:11.519Z,1007.20
2018-12-15T11:03:11.490Z,1007.21
2018-12-15T11:04:11.476Z,1007.14
2018-12-15T11:05:11.459Z,1007.10
2018-12-15T11:06:11.442Z,1007.09
2018-12-15T11:07:11.426Z,1007.04
2018-12-15T11:08:11.413Z,1007.06
2018-12-15T11:09:11.404Z,1007.02
2018-12-15T11:10:11.380Z,1007.04
2018-12-15T11:11:11.362Z,1007.04
2018-12-15T11:12:11.347Z,1007.02
2018-12-15T11:13:11.332Z,1007.03
2018-12-15T11:14:11.315Z,1007.00
2018-12-15T11:15:11.298Z,1007.02
2018-12-15T11:16:11.283Z,1006.98
2018-12-15T11:17:11.283Z,1006.99
2018-12-15T11:18:11.265Z,1006.95
2018-12-15T11:19:11.239Z,1006.94
2018-12-15T11:20:11.221Z,1006.93
2018-12-15T11:21:11.204Z,1006.91
2018-12-15T11:22:11.189Z,1006.91
2018-12-15T11:23:11.173Z,1006.91
2018-12-15T11:24:11.163Z,1006.91
2018-12-15T11:25:11.143Z,1006.83
2018-12-15T11:26:11.130Z,1006.87
2018-12-15T11:27:11.112Z,1006.81
2018-12-15T11:28:11.096Z,1006.83
2018-12-15T11:29:11.082Z,1006.83
2018-12-15T11:30:11.065Z,1006.79
2018-12-15T11:31:11.052Z,1006.77
2018-12-15T11:32:11.037Z,1006.78
2018-12-15T11:33:11.021Z,1006.71
2018-12-15T11:34:11.010Z,1006.70
2018-12-15T11:35:10.994Z,1006.65
2018-12-15T11:36:10.973Z,1006.69
2018-12-15T11:37:10.957Z,1006.67
2018-12-15T11:38:10.941Z,1006.69
2018-12-15T11:39:10.926Z,1006.62
2018-12-15T11:40:10.910Z,1006.68
2018-12-15T11:41:10.894Z,1006.62
2018-12-15T11:42:10.888Z,1006.61
2018-12-15T11:43:10.863Z,1006.64
2018-12-15T11:44:10.851Z,1006.66
2018-12-15T11:45:10.837Z,1006.59
2018-12-15T11:46:10.817Z,1006.59
2018-12-15T11:47:10.802Z,1006.60
2018-12-15T11:48:10.788Z,1006.60
2018-12-15T11:49:10.772Z,1006.52
2018-12-15T11:50:10.758Z,1006.54
2018-12-15T11:51:10.740Z,1006.53
2018-12-15T11:52:10.722Z,1006.50
2018-12-15T11:53:10.707Z,1006.44
2018-12-15T11:54:10.691Z,1006.46
2018-12-15T11:55:10.677Z,1006.43
2018-12-15T11:56:10.669Z,1006.38
2018-12-15T11:57:10.847Z,1006.40
2018-12-15T11:58:10.631Z,1006.43
2018-12-15T11:59:10.612Z,1006.34
2018-12-15T12:00:10.602Z,1006.42
2018-12-15T12:01:10.584Z,1006.45
2018-12-15T12:02:10.565Z,1006.48
2018-12-15T12:03:10.550Z,1006.45
2018-12-15T12:04:10.537Z,1006.40
2018-12-15T12:05:10.520Z,1006.41